Time,TemperatureF,DewpointF,PressureIn,WindDirection,WindDirectionDegrees,WindSpeedMPH,WindSpeedGustMPH,Humidity,HourlyPrecipIn,Conditions,Clouds,dailyrainin,SoftwareType,DateUTC
2013-02-02 00:03:00,68.6,61.5,30.08,NNE,23,13.0,18.0,78,0.00,,,0.00,VWS V14.01,2013-02-02 10:03:00,
2013-02-02 00:08:00,68.5,61.4,30.08,North,10,10.0,10.0,78,0.00,,,0.00,VWS V14.01,2013-02-02 10:08:00,
2013-02-02 00:13:00,68.4,61.6,30.07,ENE,59,17.0,17.0,79,0.00,,,0.00,VWS V14.01,2013-02-02 10:13:00,
2013-02-02 00:18:00,68.3,61.9,30.07,NNE,19,14.0,20.0,80,0.00,,,0.00,VWS V14.01,2013-02-02 10:18:00,
2013-02-02 00:23:00,68.4,62.0,30.07,ENE,66,11.0,13.0,80,0.00,,,0.00,VWS V14.01,2013-02-02 10:23:00,
2013-02-02 00:28:00,68.4,62.0,30.07,NE,52,14.0,14.0,80,0.00,,,0.00,VWS V14.01,2013-02-02 10:28:00,
2013-02-02 00:33:00,68.4,62.0,30.07,NNE,16,18.0,18.0,80,0.00,,,0.00,VWS V14.01,2013-02-02 10:33:00,
2013-02-02 00:38:00,68.4,62.0,30.07,NE,37,9.0,11.0,80,0.00,,,0.00,VWS V14.01,2013-02-02 10:38:00,
2013-02-02 00:44:00,68.3,61.9,30.06,NNE,28,21.0,21.0,80,0.00,,,0.00,VWS V14.01,2013-02-02 10:44:00,
2013-02-02 00:49:00,68.4,61.6,30.07,North,357,12.0,12.0,79,0.00,,,0.00,VWS V14.01,2013-02-02 10:49:00,
2013-02-02 00:54:00,68.3,61.5,30.07,ENE,59,9.0,9.0,79,0.00,,,0.00,VWS V14.01,2013-02-02 10:54:00,
2013-02-02 00:59:00,68.3,61.2,30.06,NE,50,7.0,9.0,78,0.00,,,0.00,VWS V14.01,2013-02-02 10:59:00,
2013-02-02 01:04:00,68.3,60.8,30.06,NNE,15,12.0,15.0,77,0.00,,,0.00,VWS V14.01,2013-02-02 11:04:00,
2013-02-02 01:09:00,68.4,60.5,30.06,North,9,19.0,19.0,76,0.00,,,0.00,VWS V14.01,2013-02-02 11:09:00,
2013-02-02 01:14:00,68.4,60.5,30.06,NNE,17,14.0,14.0,76,0.00,,,0.00,VWS V14.01,2013-02-02 11:14:00,
2013-02-02 01:19:00,68.4,60.5,30.06,NE,42,12.0,12.0,76,0.00,,,0.00,VWS V14.01,2013-02-02 11:19:00,
2013-02-02 01:25:00,68.4,60.9,30.05,NNE,23,15.0,17.0,77,0.00,,,0.00,VWS V14.01,2013-02-02 11:25:00,
2013-02-02 01:30:00,68.4,60.9,30.05,North,6,20.0,20.0,77,0.00,,,0.00,VWS V14.01,2013-02-02 11:30:00,
2013-02-02 01:35:00,68.4,60.9,30.05,NE,54,15.0,15.0,77,0.00,,,0.00,VWS V14.01,2013-02-02 11:35:00,
2013-02-02 01:40:00,68.4,61.3,30.05,NNE,20,13.0,18.0,78,0.00,,,0.00,VWS V14.01,2013-02-02 11:40:00,
2013-02-02 01:45:00,68.3,61.5,30.04,NE,35,8.0,10.0,79,0.00,,,0.00,VWS V14.01,2013-02-02 11:45:00,
2013-02-02 01:50:00,68.2,61.8,30.05,NE,39,11.0,11.0,80,0.00,,,0.00,VWS V14.01,2013-02-02 11:50:00,
2013-02-02 01:55:00,68.1,62.1,30.04,NE,50,11.0,13.0,81,0.00,,,0.00,VWS V14.01,2013-02-02 11:55:00,
2013-02-02 02:00:00,68.0,62.3,30.04,NE,53,10.0,10.0,82,0.00,,,0.00,VWS V14.01,2013-02-02 12:00:00,
2013-02-02 02:05:00,68.0,62.7,30.04,NE,42,5.0,8.0,83,0.00,,,0.00,VWS V14.01,2013-02-02 12:05:00,
2013-02-02 02:10:00,67.9,62.5,30.04,NNE,32,13.0,16.0,83,0.00,,,0.00,VWS V14.01,2013-02-02 12:10:00,
2013-02-02 02:16:00,67.8,62.8,30.04,NNE,31,7.0,7.0,84,0.00,,,0.00,VWS V14.01,2013-02-02 12:16:00,
2013-02-02 02:21:00,67.8,62.8,30.04,NE,38,10.0,11.0,84,0.00,,,0.00,VWS V14.01,2013-02-02 12:21:00,
2013-02-02 02:26:00,67.9,62.9,30.03,NE,34,7.0,13.0,84,0.00,,,0.00,VWS V14.01,2013-02-02 12:26:00,
2013-02-02 02:31:00,68.0,63.0,30.03,NE,48,19.0,19.0,84,0.00,,,0.00,VWS V14.01,2013-02-02 12:31:00,
2013-02-02 02:36:00,68.1,63.1,30.03,NNE,28,13.0,16.0,84,0.00,,,0.00,VWS V14.01,2013-02-02 12:36:00,
2013-02-02 02:41:00,68.2,63.2,30.03,NE,34,10.0,13.0,84,0.00,,,0.00,VWS V14.01,2013-02-02 12:41:00,
2013-02-02 02:46:00,68.3,63.3,30.03,NE,40,14.0,14.0,84,0.00,,,0.00,VWS V14.01,2013-02-02 12:46:00,
2013-02-02 02:51:00,68.2,63.2,30.03,NE,39,15.0,15.0,84,0.00,,,0.00,VWS V14.01,2013-02-02 12:51:00,
2013-02-02 02:57:00,68.1,63.4,30.02,ENE,78,11.0,11.0,85,0.00,,,0.00,VWS V14.01,2013-02-02 12:57:00,
2013-02-02 03:02:00,68.2,63.5,30.02,ENE,71,17.0,17.0,85,0.00,,,0.00,VWS V14.01,2013-02-02 13:02:00,
2013-02-02 03:07:00,68.1,63.4,30.02,NNE,19,16.0,22.0,85,0.00,,,0.00,VWS V14.01,2013-02-02 13:07:00,
2013-02-02 03:12:00,68.1,63.4,30.02,NE,50,10.0,11.0,85,0.00,,,0.00,VWS V14.01,2013-02-02 13:12:00,
2013-02-02 03:17:00,67.9,63.2,30.02,NE,43,7.0,7.0,85,0.00,,,0.00,VWS V14.01,2013-02-02 13:17:00,
2013-02-02 03:22:00,67.8,63.5,30.01,NNE,31,15.0,15.0,86,0.00,,,0.00,VWS V14.01,2013-02-02 13:22:00,
2013-02-02 03:27:00,67.8,63.5,30.02,ENE,58,7.0,10.0,86,0.00,,,0.00,VWS V14.01,2013-02-02 13:27:00,
2013-02-02 03:32:00,67.7,63.4,30.02,NE,37,7.0,9.0,86,0.00,,,0.00,VWS V14.01,2013-02-02 13:32:00,
2013-02-02 03:37:00,67.7,63.4,30.02,East,81,11.0,15.0,86,0.00,,,0.00,VWS V14.01,2013-02-02 13:37:00,
2013-02-02 03:43:00,67.7,63.0,30.02,NNE,18,9.0,10.0,85,0.00,,,0.00,VWS V14.01,2013-02-02 13:43:00,
2013-02-02 03:48:00,67.7,63.0,30.02,ENE,61,12.0,12.0,85,0.00,,,0.00,VWS V14.01,2013-02-02 13:48:00,
2013-02-02 03:53:00,67.8,62.8,30.02,ENE,58,10.0,10.0,84,0.00,,,0.00,VWS V14.01,2013-02-02 13:53:00,
2013-02-02 03:58:00,67.9,62.9,30.03,NNE,17,7.0,7.0,84,0.00,,,0.00,VWS V14.01,2013-02-02 13:58:00,
2013-02-02 04:03:00,67.9,62.5,30.03,ENE,57,9.0,9.0,83,0.00,,,0.00,VWS V14.01,2013-02-02 14:03:00,
2013-02-02 04:08:00,67.8,62.8,30.03,NE,35,12.0,12.0,84,0.00,,,0.00,VWS V14.01,2013-02-02 14:08:00,
2013-02-02 04:13:00,67.7,62.7,30.03,NE,48,8.0,10.0,84,0.00,,,0.00,VWS V14.01,2013-02-02 14:13:00,
2013-02-02 04:18:00,67.8,62.8,30.03,NNE,22,10.0,12.0,84,0.00,,,0.00,VWS V14.01,2013-02-02 14:18:00,
2013-02-02 04:23:00,67.9,62.5,30.03,NNE,16,15.0,15.0,83,0.00,,,0.00,VWS V14.01,2013-02-02 14:23:00,
2013-02-02 04:28:00,68.1,62.4,30.03,NNE,26,20.0,20.0,82,0.00,,,0.00,VWS V14.01,2013-02-02 14:28:00,
2013-02-02 04:33:00,68.2,62.5,30.03,NE,54,14.0,19.0,82,0.00,,,0.00,VWS V14.01,2013-02-02 14:33:00,
2013-02-02 04:38:00,68.1,62.4,30.03,NE,50,13.0,14.0,82,0.00,,,0.00,VWS V14.01,2013-02-02 14:38:00,
2013-02-02 04:43:00,68.0,62.3,30.04,ENE,60,10.0,14.0,82,0.00,,,0.00,VWS V14.01,2013-02-02 14:43:00,
2013-02-02 04:48:00,67.9,62.2,30.04,NE,54,17.0,17.0,82,0.00,,,0.00,VWS V14.01,2013-02-02 14:48:00,
2013-02-02 04:53:00,67.7,62.0,30.04,ENE,66,14.0,14.0,82,0.00,,,0.00,VWS V14.01,2013-02-02 14:53:00,
2013-02-02 04:58:00,67.7,62.0,30.04,NE,54,7.0,9.0,82,0.00,,,0.00,VWS V14.01,2013-02-02 14:58:00,
2013-02-02 05:04:00,67.7,61.7,30.04,NNE,23,15.0,15.0,81,0.00,,,0.00,VWS V14.01,2013-02-02 15:04:00,
2013-02-02 05:09:00,67.9,62.2,30.04,NNE,20,15.0,15.0,82,0.00,,,0.00,VWS V14.01,2013-02-02 15:09:00,
2013-02-02 05:14:00,68.0,62.0,30.04,ENE,59,9.0,13.0,81,0.00,,,0.00,VWS V14.01,2013-02-02 15:14:00,
2013-02-02 05:19:00,68.1,62.1,30.04,NE,40,16.0,16.0,81,0.00,,,0.00,VWS V14.01,2013-02-02 15:19:00,
2013-02-02 05:24:00,68.0,62.0,30.05,NE,34,12.0,15.0,81,0.00,,,0.00,VWS V14.01,2013-02-02 15:24:00,
2013-02-02 05:29:00,67.8,61.8,30.05,NE,36,12.0,13.0,81,0.00,,,0.00,VWS V14.01,2013-02-02 15:29:00,
2013-02-02 05:34:00,67.7,61.7,30.05,NE,35,9.0,9.0,81,0.00,,,0.00,VWS V14.01,2013-02-02 15:34:00,
2013-02-02 05:39:00,67.8,61.8,30.05,ENE,57,13.0,16.0,81,0.00,,,0.00,VWS V14.01,2013-02-02 15:39:00,
2013-02-02 05:44:00,68.0,61.6,30.05,NNE,27,12.0,16.0,80,0.00,,,0.00,VWS V14.01,2013-02-02 15:44:00,
2013-02-02 05:49:00,68.2,61.5,30.05,NNE,33,23.0,23.0,79,0.00,,,0.00,VWS V14.01,2013-02-02 15:49:00,
2013-02-02 05:54:00,68.3,60.8,30.05,NE,50,15.0,15.0,77,0.00,,,0.00,VWS V14.01,2013-02-02 15:54:00,
2013-02-02 06:00:00,68.2,61.1,30.05,ENE,68,14.0,18.0,78,0.00,,,0.00,VWS V14.01,2013-02-02 16:00:00,
2013-02-02 06:05:00,68.0,60.9,30.05,ENE,59,14.0,14.0,78,0.00,,,0.00,VWS V14.01,2013-02-02 16:05:00,
2013-02-02 06:10:00,67.4,60.3,30.06,ENE,60,13.0,13.0,78,0.00,,,0.00,VWS V14.01,2013-02-02 16:10:00,
2013-02-02 06:15:00,66.6,58.8,30.06,North,360,10.0,12.0,76,0.00,,,0.00,VWS V14.01,2013-02-02 16:15:00,
2013-02-02 06:20:00,66.5,59.1,30.06,NNE,20,11.0,11.0,77,0.00,,,0.00,VWS V14.01,2013-02-02 16:20:00,
2013-02-02 06:25:00,67.0,60.3,30.06,NNE,19,13.0,14.0,79,0.00,,,0.00,VWS V14.01,2013-02-02 16:25:00,
2013-02-02 06:30:00,67.6,60.5,30.06,NNE,33,10.0,14.0,78,0.00,,,0.00,VWS V14.01,2013-02-02 16:30:00,
2013-02-02 06:35:00,67.8,60.7,30.06,NNE,33,14.0,14.0,78,0.00,,,0.00,VWS V14.01,2013-02-02 16:35:00,
2013-02-02 06:40:00,67.8,60.7,30.07,NE,50,14.0,17.0,78,0.00,,,0.00,VWS V14.01,2013-02-02 16:40:00,
2013-02-02 06:45:00,67.5,60.8,30.07,NE,38,13.0,17.0,79,0.00,,,0.00,VWS V14.01,2013-02-02 16:45:00,
2013-02-02 06:50:00,67.4,60.3,30.08,ENE,58,10.0,15.0,78,0.00,,,0.00,VWS V14.01,2013-02-02 16:50:00,
2013-02-02 06:55:00,67.5,60.4,30.07,NNE,14,8.0,9.0,78,0.00,,,0.00,VWS V14.01,2013-02-02 16:55:00,
2013-02-02 07:00:00,67.8,60.3,30.07,ENE,57,18.0,21.0,77,0.00,,,0.00,VWS V14.01,2013-02-02 17:00:00,
2013-02-02 07:05:00,67.9,60.8,30.08,NE,47,11.0,13.0,78,0.00,,,0.00,VWS V14.01,2013-02-02 17:05:00,
2013-02-02 07:11:00,67.7,60.6,30.08,ENE,70,10.0,12.0,78,0.00,,,0.00,VWS V14.01,2013-02-02 17:11:00,
2013-02-02 07:16:00,67.6,60.5,30.08,NNE,22,10.0,10.0,78,0.00,,,0.00,VWS V14.01,2013-02-02 17:16:00,
2013-02-02 07:21:00,67.9,60.8,30.09,NNE,21,9.0,12.0,78,0.00,,,0.00,VWS V14.01,2013-02-02 17:21:00,
2013-02-02 07:26:00,68.3,61.2,30.09,NNE,26,12.0,12.0,78,0.00,,,0.00,VWS V14.01,2013-02-02 17:26:00,
2013-02-02 07:31:00,68.6,61.5,30.09,North,9,14.0,14.0,78,0.00,,,0.00,VWS V14.01,2013-02-02 17:31:00,
2013-02-02 07:36:00,68.8,62.0,30.09,NE,40,15.0,15.0,79,0.00,,,0.00,VWS V14.01,2013-02-02 17:36:00,
2013-02-02 07:41:00,69.0,61.9,30.10,NE,41,11.0,13.0,78,0.00,,,0.00,VWS V14.01,2013-02-02 17:41:00,
2013-02-02 07:46:00,69.2,62.1,30.10,East,85,8.0,10.0,78,0.00,,,0.00,VWS V14.01,2013-02-02 17:46:00,
2013-02-02 07:51:00,69.3,61.8,30.10,ENE,74,11.0,12.0,77,0.00,,,0.00,VWS V14.01,2013-02-02 17:51:00,
2013-02-02 07:57:00,69.6,62.1,30.10,NE,47,13.0,13.0,77,0.00,,,0.00,VWS V14.01,2013-02-02 17:57:00,
2013-02-02 08:02:00,69.7,61.8,30.10,ENE,57,8.0,11.0,76,0.00,,,0.00,VWS V14.01,2013-02-02 18:02:00,
2013-02-02 08:07:00,69.7,61.8,30.10,ENE,57,17.0,17.0,76,0.00,,,0.00,VWS V14.01,2013-02-02 18:07:00,
2013-02-02 08:12:00,69.7,61.8,30.10,ENE,76,12.0,12.0,76,0.00,,,0.00,VWS V14.01,2013-02-02 18:12:00,
2013-02-02 08:17:00,69.9,62.0,30.11,ESE,108,13.0,15.0,76,0.00,,,0.00,VWS V14.01,2013-02-02 18:17:00,
2013-02-02 08:22:00,69.9,61.6,30.11,NE,55,14.0,14.0,75,0.00,,,0.00,VWS V14.01,2013-02-02 18:22:00,
2013-02-02 08:27:00,69.9,61.2,30.11,NE,52,12.0,14.0,74,0.00,,,0.00,VWS V14.01,2013-02-02 18:27:00,
2013-02-02 08:32:00,70.1,61.4,30.11,East,90,11.0,14.0,74,0.00,,,0.00,VWS V14.01,2013-02-02 18:32:00,
2013-02-02 08:38:00,69.9,61.2,30.11,East,85,18.0,18.0,74,0.00,,,0.00,VWS V14.01,2013-02-02 18:38:00,
2013-02-02 08:43:00,70.1,61.0,30.11,NE,42,15.0,18.0,73,0.00,,,0.00,VWS V14.01,2013-02-02 18:43:00,
2013-02-02 08:48:00,70.2,61.5,30.11,NE,35,13.0,13.0,74,0.00,,,0.00,VWS V14.01,2013-02-02 18:48:00,
2013-02-02 08:53:00,70.4,61.3,30.11,ENE,62,10.0,12.0,73,0.00,,,0.00,VWS V14.01,2013-02-02 18:53:00,
2013-02-02 08:58:00,70.6,61.1,30.11,ENE,63,18.0,20.0,72,0.00,,,0.00,VWS V14.01,2013-02-02 18:58:00,
2013-02-02 09:03:00,70.4,61.3,30.12,NE,52,10.0,15.0,73,0.00,,,0.00,VWS V14.01,2013-02-02 19:03:00,
2013-02-02 09:08:00,70.7,61.2,30.12,East,100,14.0,16.0,72,0.00,,,0.00,VWS V14.01,2013-02-02 19:08:00,
2013-02-02 09:13:00,71.0,60.7,30.12,NE,55,13.0,14.0,70,0.00,,,0.00,VWS V14.01,2013-02-02 19:13:00,
2013-02-02 09:18:00,70.7,60.5,30.12,NNE,28,9.0,21.0,70,0.00,,,0.00,VWS V14.01,2013-02-02 19:18:00,
2013-02-02 09:24:00,70.9,60.6,30.12,East,83,15.0,15.0,70,0.00,,,0.00,VWS V14.01,2013-02-02 19:24:00,
2013-02-02 09:29:00,71.2,60.9,30.12,ENE,57,11.0,15.0,70,0.00,,,0.00,VWS V14.01,2013-02-02 19:29:00,
2013-02-02 09:34:00,71.5,60.8,30.12,NE,40,15.0,15.0,69,0.00,,,0.00,VWS V14.01,2013-02-02 19:34:00,
2013-02-02 09:39:00,71.5,60.8,30.12,NE,52,21.0,21.0,69,0.00,,,0.00,VWS V14.01,2013-02-02 19:39:00,
2013-02-02 09:44:00,71.4,60.7,30.12,East,92,9.0,11.0,69,0.00,,,0.00,VWS V14.01,2013-02-02 19:44:00,
2013-02-02 09:49:00,71.8,61.1,30.12,East,85,13.0,14.0,69,0.00,,,0.00,VWS V14.01,2013-02-02 19:49:00,
2013-02-02 09:54:00,72.1,60.5,30.12,East,93,15.0,15.0,67,0.00,,,0.00,VWS V14.01,2013-02-02 19:54:00,
2013-02-02 09:59:00,72.2,60.7,30.12,ENE,68,11.0,11.0,67,0.00,,,0.00,VWS V14.01,2013-02-02 19:59:00,
2013-02-02 10:04:00,72.6,60.6,30.12,East,90,13.0,13.0,66,0.00,,,0.00,VWS V14.01,2013-02-02 20:04:00,
2013-02-02 10:09:00,72.2,60.2,30.12,ESE,111,14.0,14.0,66,0.00,,,0.00,VWS V14.01,2013-02-02 20:09:00,
2013-02-02 10:14:00,73.0,60.5,30.12,East,94,12.0,17.0,65,0.00,,,0.00,VWS V14.01,2013-02-02 20:14:00,
2013-02-02 10:19:00,73.5,60.2,30.12,ESE,102,16.0,16.0,63,0.00,,,0.00,VWS V14.01,2013-02-02 20:19:00,
2013-02-02 10:25:00,73.5,60.2,30.12,East,81,13.0,16.0,63,0.00,,,0.00,VWS V14.01,2013-02-02 20:25:00,
2013-02-02 10:30:00,73.3,60.4,30.12,ENE,60,11.0,13.0,64,0.00,,,0.00,VWS V14.01,2013-02-02 20:30:00,
2013-02-02 10:35:00,73.8,60.4,30.12,NE,53,15.0,18.0,63,0.00,,,0.00,VWS V14.01,2013-02-02 20:35:00,
2013-02-02 10:40:00,73.8,60.9,30.13,East,98,10.0,12.0,64,0.00,,,0.00,VWS V14.01,2013-02-02 20:40:00,
2013-02-02 10:45:00,73.6,60.2,30.12,East,99,12.0,14.0,63,0.00,,,0.00,VWS V14.01,2013-02-02 20:45:00,
2013-02-02 10:50:00,73.9,59.6,30.12,ESE,104,10.0,16.0,61,0.00,,,0.00,VWS V14.01,2013-02-02 20:50:00,
2013-02-02 10:55:00,73.4,59.2,30.12,NE,55,9.0,9.0,61,0.00,,,0.00,VWS V14.01,2013-02-02 20:55:00,
2013-02-02 11:00:00,73.2,59.9,30.11,ENE,76,16.0,19.0,63,0.00,,,0.00,VWS V14.01,2013-02-02 21:00:00,
2013-02-02 11:05:00,73.2,60.7,30.11,NE,54,12.0,17.0,65,0.00,,,0.00,VWS V14.01,2013-02-02 21:05:00,
2013-02-02 11:10:00,73.2,60.3,30.11,East,84,7.0,12.0,64,0.00,,,0.00,VWS V14.01,2013-02-02 21:10:00,
2013-02-02 11:16:00,73.8,60.9,30.11,ESE,108,19.0,21.0,64,0.00,,,0.00,VWS V14.01,2013-02-02 21:16:00,
2013-02-02 11:21:00,73.5,61.5,30.11,ENE,61,8.0,11.0,66,0.00,,,0.00,VWS V14.01,2013-02-02 21:21:00,
2013-02-02 11:26:00,74.1,62.5,30.11,ESE,104,13.0,13.0,67,0.00,,,0.00,VWS V14.01,2013-02-02 21:26:00,
2013-02-02 11:31:00,74.3,61.8,30.11,ESE,105,12.0,16.0,65,0.00,,,0.00,VWS V14.01,2013-02-02 21:31:00,
2013-02-02 11:36:00,74.0,61.5,30.11,ENE,73,13.0,13.0,65,0.00,,,0.00,VWS V14.01,2013-02-02 21:36:00,
2013-02-02 11:41:00,73.4,60.9,30.11,ESE,121,16.0,16.0,65,0.00,,,0.00,VWS V14.01,2013-02-02 21:41:00,
2013-02-02 11:46:00,73.3,61.3,30.11,ESE,105,16.0,21.0,66,0.00,,,0.00,VWS V14.01,2013-02-02 21:46:00,
2013-02-02 11:51:00,72.9,60.9,30.10,East,92,13.0,17.0,66,0.00,,,0.00,VWS V14.01,2013-02-02 21:51:00,
2013-02-02 11:56:00,73.4,60.5,30.10,ENE,59,15.0,19.0,64,0.00,,,0.00,VWS V14.01,2013-02-02 21:56:00,
2013-02-02 12:01:00,73.8,60.9,30.10,ESE,107,9.0,12.0,64,0.00,,,0.00,VWS V14.01,2013-02-02 22:01:00,
2013-02-02 12:06:00,74.7,61.7,30.10,ESE,104,21.0,21.0,64,0.00,,,0.00,VWS V14.01,2013-02-02 22:06:00,
2013-02-02 12:12:00,73.9,62.3,30.10,ESE,105,17.0,21.0,67,0.00,,,0.00,VWS V14.01,2013-02-02 22:12:00,
2013-02-02 12:17:00,72.8,61.2,30.10,East,100,15.0,17.0,67,0.00,,,0.00,VWS V14.01,2013-02-02 22:17:00,
2013-02-02 12:22:00,72.6,60.6,30.09,East,97,14.0,15.0,66,0.00,,,0.00,VWS V14.01,2013-02-02 22:22:00,
2013-02-02 12:27:00,72.0,61.3,30.09,ESE,104,12.0,14.0,69,0.00,,,0.00,VWS V14.01,2013-02-02 22:27:00,
2013-02-02 12:32:00,71.7,60.2,30.09,ENE,68,6.0,6.0,67,0.00,,,0.00,VWS V14.01,2013-02-02 22:32:00,
2013-02-02 12:37:00,71.9,59.9,30.09,ENE,78,10.0,11.0,66,0.00,,,0.00,VWS V14.01,2013-02-02 22:37:00,
2013-02-02 12:42:00,71.7,60.2,30.09,ENE,76,11.0,11.0,67,0.00,,,0.00,VWS V14.01,2013-02-02 22:42:00,
2013-02-02 12:47:00,71.5,60.0,30.09,ENE,68,14.0,14.0,67,0.00,,,0.00,VWS V14.01,2013-02-02 22:47:00,
2013-02-02 12:52:00,71.5,60.0,30.09,NE,35,9.0,13.0,67,0.00,,,0.00,VWS V14.01,2013-02-02 22:52:00,
2013-02-02 12:57:00,71.3,59.8,30.08,NE,52,6.0,9.0,67,0.00,,,0.00,VWS V14.01,2013-02-02 22:57:00,
2013-02-02 13:02:00,71.3,59.4,30.08,NNE,26,21.0,21.0,66,0.00,,,0.00,VWS V14.01,2013-02-02 23:02:00,
2013-02-02 13:07:00,71.6,60.1,30.08,ENE,59,8.0,11.0,67,0.00,,,0.00,VWS V14.01,2013-02-02 23:07:00,
2013-02-02 13:12:00,71.1,59.6,30.08,East,95,9.0,14.0,67,0.00,,,0.00,VWS V14.01,2013-02-02 23:12:00,
2013-02-02 13:18:00,71.2,59.7,30.07,NNE,18,14.0,19.0,67,0.00,,,0.00,VWS V14.01,2013-02-02 23:18:00,
2013-02-02 13:23:00,71.3,59.8,30.08,ENE,76,7.0,9.0,67,0.00,,,0.00,VWS V14.01,2013-02-02 23:23:00,
2013-02-02 13:28:00,71.1,60.4,30.07,NE,43,7.0,15.0,69,0.00,,,0.00,VWS V14.01,2013-02-02 23:28:00,
2013-02-02 13:33:00,70.9,60.2,30.07,NNE,33,18.0,21.0,69,0.00,,,0.00,VWS V14.01,2013-02-02 23:33:00,
2013-02-02 13:38:00,70.6,60.3,30.07,NE,36,10.0,11.0,70,0.00,,,0.00,VWS V14.01,2013-02-02 23:38:00,
2013-02-02 13:43:00,70.5,60.7,30.07,NE,46,12.0,13.0,71,0.00,,,0.00,VWS V14.01,2013-02-02 23:43:00,
2013-02-02 13:48:00,70.5,61.0,30.07,East,90,21.0,21.0,72,0.00,,,0.00,VWS V14.01,2013-02-02 23:48:00,
2013-02-02 13:53:00,70.3,61.2,30.07,NE,36,11.0,17.0,73,0.00,,,0.00,VWS V14.01,2013-02-02 23:53:00,
2013-02-02 13:58:00,70.3,60.5,30.07,ENE,75,17.0,20.0,71,0.00,,,0.00,VWS V14.01,2013-02-02 23:58:00,
2013-02-02 14:04:00,70.1,61.0,30.07,ENE,61,9.0,9.0,73,0.00,,,0.00,VWS V14.01,2013-02-03 00:04:00,
2013-02-02 14:09:00,70.1,60.7,30.07,NNE,16,9.0,9.0,72,0.00,,,0.00,VWS V14.01,2013-02-03 00:09:00,
2013-02-02 14:14:00,69.9,60.5,30.07,NE,44,12.0,12.0,72,0.00,,,0.00,VWS V14.01,2013-02-03 00:14:00,
2013-02-02 14:19:00,69.8,60.4,30.07,NE,46,7.0,11.0,72,0.00,,,0.00,VWS V14.01,2013-02-03 00:19:00,
2013-02-02 14:24:00,69.9,60.5,30.07,NNE,26,11.0,11.0,72,0.00,,,0.00,VWS V14.01,2013-02-03 00:24:00,
2013-02-02 14:29:00,69.8,60.0,30.07,ENE,57,9.0,9.0,71,0.00,,,0.00,VWS V14.01,2013-02-03 00:29:00,
2013-02-02 14:34:00,69.9,59.7,30.07,ESE,108,9.0,11.0,70,0.00,,,0.00,VWS V14.01,2013-02-03 00:34:00,
2013-02-02 14:39:00,70.1,59.9,30.07,East,83,12.0,12.0,70,0.00,,,0.00,VWS V14.01,2013-02-03 00:39:00,
2013-02-02 14:44:00,69.9,59.7,30.07,NNE,29,6.0,9.0,70,0.00,,,0.00,VWS V14.01,2013-02-03 00:44:00,
2013-02-02 14:49:00,70.0,60.2,30.07,NNE,21,7.0,7.0,71,0.00,,,0.00,VWS V14.01,2013-02-03 00:49:00,
2013-02-02 14:54:00,70.0,59.8,30.07,NNE,17,9.0,11.0,70,0.00,,,0.00,VWS V14.01,2013-02-03 00:54:00,
2013-02-02 15:00:00,70.0,60.6,30.07,NE,46,8.0,9.0,72,0.00,,,0.00,VWS V14.01,2013-02-03 01:00:00,
2013-02-02 15:05:00,69.9,60.1,30.07,NE,38,14.0,18.0,71,0.00,,,0.00,VWS V14.01,2013-02-03 01:05:00,
2013-02-02 15:10:00,69.7,59.9,30.07,NE,43,9.0,10.0,71,0.00,,,0.00,VWS V14.01,2013-02-03 01:10:00,
2013-02-02 15:15:00,69.7,60.3,30.06,ENE,68,14.0,14.0,72,0.00,,,0.00,VWS V14.01,2013-02-03 01:15:00,
2013-02-02 15:20:00,69.6,60.2,30.06,NNE,31,11.0,11.0,72,0.00,,,0.00,VWS V14.01,2013-02-03 01:20:00,
2013-02-02 15:25:00,69.5,59.7,30.06,NNE,19,17.0,23.0,71,0.00,,,0.00,VWS V14.01,2013-02-03 01:25:00,
2013-02-02 15:30:00,69.4,60.0,30.06,NNE,33,20.0,20.0,72,0.00,,,0.00,VWS V14.01,2013-02-03 01:30:00,
2013-02-02 15:35:00,69.3,59.9,30.06,NNE,12,9.0,11.0,72,0.00,,,0.00,VWS V14.01,2013-02-03 01:35:00,
2013-02-02 15:40:00,69.2,59.8,30.06,NNE,31,10.0,17.0,72,0.00,,,0.00,VWS V14.01,2013-02-03 01:40:00,
2013-02-02 15:45:00,69.2,59.8,30.07,NE,54,12.0,12.0,72,0.00,,,0.00,VWS V14.01,2013-02-03 01:45:00,
2013-02-02 15:51:00,69.3,59.5,30.07,NNE,24,18.0,19.0,71,0.00,,,0.00,VWS V14.01,2013-02-03 01:51:00,
2013-02-02 15:56:00,69.3,59.5,30.07,ENE,76,3.0,8.0,71,0.00,,,0.00,VWS V14.01,2013-02-03 01:56:00,
2013-02-02 16:01:00,69.4,59.6,30.07,NNE,24,16.0,16.0,71,0.00,,,0.00,VWS V14.01,2013-02-03 02:01:00,
2013-02-02 16:06:00,69.3,59.9,30.07,North,7,7.0,7.0,72,0.00,,,0.00,VWS V14.01,2013-02-03 02:06:00,
2013-02-02 16:11:00,69.3,59.9,30.07,NE,54,6.0,6.0,72,0.00,,,0.00,VWS V14.01,2013-02-03 02:11:00,
2013-02-02 16:16:00,69.3,59.9,30.07,NNE,23,11.0,14.0,72,0.00,,,0.00,VWS V14.01,2013-02-03 02:16:00,
2013-02-02 16:21:00,69.2,59.8,30.07,NE,40,6.0,9.0,72,0.00,,,0.00,VWS V14.01,2013-02-03 02:21:00,
2013-02-02 16:26:00,69.3,59.9,30.07,NNE,24,9.0,11.0,72,0.00,,,0.00,VWS V14.01,2013-02-03 02:26:00,
2013-02-02 16:31:00,69.2,59.8,30.07,NNE,23,9.0,17.0,72,0.00,,,0.00,VWS V14.01,2013-02-03 02:31:00,
2013-02-02 16:36:00,69.1,59.7,30.07,NE,54,7.0,8.0,72,0.00,,,0.00,VWS V14.01,2013-02-03 02:36:00,
2013-02-02 16:42:00,69.1,59.7,30.07,ESE,104,11.0,11.0,72,0.00,,,0.00,VWS V14.01,2013-02-03 02:42:00,
2013-02-02 16:47:00,69.1,59.7,30.08,NE,51,6.0,7.0,72,0.00,,,0.00,VWS V14.01,2013-02-03 02:47:00,
2013-02-02 16:52:00,69.1,59.3,30.08,North,7,6.0,8.0,71,0.00,,,0.00,VWS V14.01,2013-02-03 02:52:00,
2013-02-02 16:57:00,69.1,59.3,30.08,NE,54,7.0,7.0,71,0.00,,,0.00,VWS V14.01,2013-02-03 02:57:00,
2013-02-02 17:02:00,69.0,59.2,30.08,ENE,59,10.0,13.0,71,0.00,,,0.00,VWS V14.01,2013-02-03 03:02:00,
2013-02-02 17:07:00,68.9,58.7,30.08,NNE,21,14.0,16.0,70,0.00,,,0.00,VWS V14.01,2013-02-03 03:07:00,
2013-02-02 17:12:00,68.9,58.3,30.08,NNE,33,13.0,21.0,69,0.00,,,0.00,VWS V14.01,2013-02-03 03:12:00,
2013-02-02 17:17:00,68.9,58.3,30.08,NE,55,17.0,20.0,69,0.00,,,0.00,VWS V14.01,2013-02-03 03:17:00,
2013-02-02 17:22:00,68.9,58.3,30.09,NE,42,13.0,15.0,69,0.00,,,0.00,VWS V14.01,2013-02-03 03:22:00,
2013-02-02 17:27:00,68.8,58.6,30.09,NE,45,7.0,10.0,70,0.00,,,0.00,VWS V14.01,2013-02-03 03:27:00,
2013-02-02 17:32:00,68.8,58.6,30.09,ENE,61,11.0,14.0,70,0.00,,,0.00,VWS V14.01,2013-02-03 03:32:00,
2013-02-02 17:38:00,68.7,58.9,30.09,ENE,64,11.0,15.0,71,0.00,,,0.00,VWS V14.01,2013-02-03 03:38:00,
2013-02-02 17:43:00,68.7,58.9,30.09,NNE,28,6.0,9.0,71,0.00,,,0.00,VWS V14.01,2013-02-03 03:43:00,
2013-02-02 17:48:00,68.6,59.2,30.09,NNE,28,12.0,13.0,72,0.00,,,0.00,VWS V14.01,2013-02-03 03:48:00,
2013-02-02 17:53:00,68.6,59.6,30.09,NNE,24,9.0,11.0,73,0.00,,,0.00,VWS V14.01,2013-02-03 03:53:00,
2013-02-02 17:58:00,68.6,60.0,30.09,NNE,28,8.0,10.0,74,0.00,,,0.00,VWS V14.01,2013-02-03 03:58:00,
2013-02-02 18:03:00,68.5,59.9,30.10,NE,47,13.0,14.0,74,0.00,,,0.00,VWS V14.01,2013-02-03 04:03:00,
2013-02-02 18:08:00,68.4,59.8,30.10,NE,45,9.0,9.0,74,0.00,,,0.00,VWS V14.01,2013-02-03 04:08:00,
2013-02-02 18:13:00,68.4,60.2,30.10,ENE,66,11.0,14.0,75,0.00,,,0.00,VWS V14.01,2013-02-03 04:13:00,
2013-02-02 18:18:00,68.4,60.2,30.10,NE,40,11.0,15.0,75,0.00,,,0.00,VWS V14.01,2013-02-03 04:18:00,
2013-02-02 18:23:00,68.4,60.2,30.10,ENE,65,8.0,8.0,75,0.00,,,0.00,VWS V14.01,2013-02-03 04:23:00,
2013-02-02 18:28:00,68.2,60.3,30.10,NE,42,11.0,17.0,76,0.00,,,0.00,VWS V14.01,2013-02-03 04:28:00,
2013-02-02 18:33:00,68.2,60.0,30.10,NE,47,8.0,9.0,75,0.00,,,0.00,VWS V14.01,2013-02-03 04:33:00,
2013-02-02 18:39:00,68.2,60.0,30.11,NE,51,6.0,7.0,75,0.00,,,0.00,VWS V14.01,2013-02-03 04:39:00,
2013-02-02 18:44:00,68.1,59.5,30.11,NE,55,6.0,6.0,74,0.00,,,0.00,VWS V14.01,2013-02-03 04:44:00,
2013-02-02 18:49:00,68.1,59.5,30.11,NE,47,12.0,12.0,74,0.00,,,0.00,VWS V14.01,2013-02-03 04:49:00,
2013-02-02 18:54:00,68.0,59.0,30.11,NNE,32,9.0,9.0,73,0.00,,,0.00,VWS V14.01,2013-02-03 04:54:00,
2013-02-02 18:59:00,68.1,58.7,30.11,ENE,58,5.0,8.0,72,0.00,,,0.00,VWS V14.01,2013-02-03 04:59:00,
2013-02-02 19:00:00,68.1,58.7,30.11,NE,35,10.0,10.0,72,0.00,,,0.00,VWS V14.01,2013-02-03 05:00:00,
2013-02-02 19:01:00,68.1,58.7,30.11,NE,43,12.0,16.0,72,0.00,,,0.00,VWS V14.01,2013-02-03 05:01:00,
2013-02-02 19:06:00,68.0,58.7,30.11,NE,49,9.0,9.0,72,0.00,,,0.00,VWS V14.01,2013-02-03 05:06:00,
2013-02-02 19:11:00,68.0,58.7,30.11,NNE,26,7.0,7.0,72,0.00,,,0.00,VWS V14.01,2013-02-03 05:11:00,
2013-02-02 19:16:00,68.1,58.3,30.11,NE,43,5.0,7.0,71,0.00,,,0.00,VWS V14.01,2013-02-03 05:16:00,
2013-02-02 19:21:00,68.1,58.3,30.11,NNE,18,10.0,10.0,71,0.00,,,0.00,VWS V14.01,2013-02-03 05:21:00,
2013-02-02 19:26:00,68.1,58.3,30.11,NE,55,9.0,9.0,71,0.00,,,0.00,VWS V14.01,2013-02-03 05:26:00,
2013-02-02 19:31:00,68.1,58.0,30.12,NNE,21,8.0,13.0,70,0.00,,,0.00,VWS V14.01,2013-02-03 05:31:00,
2013-02-02 19:36:00,68.1,57.6,30.12,NNE,29,10.0,10.0,69,0.00,,,0.00,VWS V14.01,2013-02-03 05:36:00,
2013-02-02 19:41:00,68.1,57.6,30.12,NE,44,6.0,8.0,69,0.00,,,0.00,VWS V14.01,2013-02-03 05:41:00,
2013-02-02 19:46:00,68.0,57.5,30.12,NE,39,9.0,9.0,69,0.00,,,0.00,VWS V14.01,2013-02-03 05:46:00,
2013-02-02 19:52:00,68.1,57.6,30.12,ENE,57,8.0,8.0,69,0.00,,,0.00,VWS V14.01,2013-02-03 05:52:00,
2013-02-02 19:57:00,68.0,57.9,30.12,ENE,68,8.0,8.0,70,0.00,,,0.00,VWS V14.01,2013-02-03 05:57:00,
2013-02-02 20:02:00,68.1,58.0,30.12,NNE,16,8.0,8.0,70,0.00,,,0.00,VWS V14.01,2013-02-03 06:02:00,
2013-02-02 20:07:00,68.1,58.3,30.12,NNE,19,11.0,12.0,71,0.00,,,0.00,VWS V14.01,2013-02-03 06:07:00,
2013-02-02 20:12:00,68.1,58.7,30.12,ENE,68,9.0,10.0,72,0.00,,,0.00,VWS V14.01,2013-02-03 06:12:00,
2013-02-02 20:17:00,68.0,58.7,30.12,NE,50,6.0,8.0,72,0.00,,,0.00,VWS V14.01,2013-02-03 06:17:00,
2013-02-02 20:22:00,67.9,58.5,30.12,NE,39,11.0,11.0,72,0.00,,,0.00,VWS V14.01,2013-02-03 06:22:00,
2013-02-02 20:27:00,67.9,58.5,30.13,NE,48,6.0,6.0,72,0.00,,,0.00,VWS V14.01,2013-02-03 06:27:00,
2013-02-02 20:33:00,67.8,58.5,30.13,NNE,16,12.0,12.0,72,0.00,,,0.00,VWS V14.01,2013-02-03 06:33:00,
2013-02-02 20:38:00,67.8,58.1,30.13,NE,52,10.0,10.0,71,0.00,,,0.00,VWS V14.01,2013-02-03 06:38:00,
2013-02-02 20:43:00,67.7,58.4,30.13,NE,48,4.0,7.0,72,0.00,,,0.00,VWS V14.01,2013-02-03 06:43:00,
2013-02-02 20:48:00,67.7,58.0,30.13,ENE,73,9.0,9.0,71,0.00,,,0.00,VWS V14.01,2013-02-03 06:48:00,
2013-02-02 20:53:00,67.6,57.9,30.13,NNE,29,10.0,12.0,71,0.00,,,0.00,VWS V14.01,2013-02-03 06:53:00,
2013-02-02 20:58:00,67.5,57.8,30.13,NE,38,6.0,7.0,71,0.00,,,0.00,VWS V14.01,2013-02-03 06:58:00,
2013-02-02 21:03:00,67.5,57.8,30.14,NNE,27,8.0,9.0,71,0.00,,,0.00,VWS V14.01,2013-02-03 07:03:00,
2013-02-02 21:08:00,67.3,57.6,30.14,ENE,74,6.0,6.0,71,0.00,,,0.00,VWS V14.01,2013-02-03 07:08:00,
2013-02-02 21:13:00,67.1,57.4,30.14,ENE,64,12.0,12.0,71,0.00,,,0.00,VWS V14.01,2013-02-03 07:13:00,
2013-02-02 21:19:00,67.1,57.4,30.13,NE,55,5.0,5.0,71,0.00,,,0.00,VWS V14.01,2013-02-03 07:19:00,
2013-02-02 21:24:00,67.1,57.8,30.14,ENE,58,10.0,10.0,72,0.00,,,0.00,VWS V14.01,2013-02-03 07:24:00,
2013-02-02 21:29:00,67.1,57.4,30.14,NNE,21,10.0,12.0,71,0.00,,,0.00,VWS V14.01,2013-02-03 07:29:00,
2013-02-02 21:34:00,67.4,57.7,30.14,NNE,19,7.0,7.0,71,0.00,,,0.00,VWS V14.01,2013-02-03 07:34:00,
2013-02-02 21:39:00,67.4,57.7,30.14,ENE,69,9.0,10.0,71,0.00,,,0.00,VWS V14.01,2013-02-03 07:39:00,
2013-02-02 21:44:00,67.4,57.7,30.14,NE,40,9.0,16.0,71,0.00,,,0.00,VWS V14.01,2013-02-03 07:44:00,
2013-02-02 21:49:00,67.3,58.0,30.14,NE,49,8.0,8.0,72,0.00,,,0.00,VWS V14.01,2013-02-03 07:49:00,
2013-02-02 21:54:00,67.3,58.0,30.14,NE,49,9.0,9.0,72,0.00,,,0.00,VWS V14.01,2013-02-03 07:54:00,
2013-02-02 21:59:00,67.2,57.1,30.14,NE,41,6.0,6.0,70,0.00,,,0.00,VWS V14.01,2013-02-03 07:59:00,
2013-02-02 22:05:00,67.2,57.5,30.14,NE,52,6.0,7.0,71,0.00,,,0.00,VWS V14.01,2013-02-03 08:05:00,
2013-02-02 22:10:00,67.1,57.4,30.14,East,85,3.0,5.0,71,0.00,,,0.00,VWS V14.01,2013-02-03 08:10:00,
2013-02-02 22:15:00,67.1,57.4,30.13,NE,51,4.0,9.0,71,0.00,,,0.00,VWS V14.01,2013-02-03 08:15:00,
2013-02-02 22:20:00,67.2,57.9,30.13,NNE,33,6.0,8.0,72,0.00,,,0.00,VWS V14.01,2013-02-03 08:20:00,
2013-02-02 22:25:00,67.3,57.6,30.13,NNE,21,8.0,8.0,71,0.00,,,0.00,VWS V14.01,2013-02-03 08:25:00,
2013-02-02 22:30:00,67.3,58.0,30.13,ENE,61,8.0,12.0,72,0.00,,,0.00,VWS V14.01,2013-02-03 08:30:00,
2013-02-02 22:35:00,67.3,58.0,30.13,NE,52,10.0,10.0,72,0.00,,,0.00,VWS V14.01,2013-02-03 08:35:00,
2013-02-02 22:40:00,67.3,58.0,30.12,NNE,24,10.0,11.0,72,0.00,,,0.00,VWS V14.01,2013-02-03 08:40:00,
2013-02-02 22:46:00,67.1,57.8,30.13,NNE,20,6.0,6.0,72,0.00,,,0.00,VWS V14.01,2013-02-03 08:46:00,
2013-02-02 22:51:00,67.0,57.7,30.13,NNE,30,5.0,6.0,72,0.00,,,0.00,VWS V14.01,2013-02-03 08:51:00,
2013-02-02 22:56:00,66.6,57.7,30.13,NE,36,5.0,5.0,73,0.00,,,0.00,VWS V14.01,2013-02-03 08:56:00,
2013-02-02 23:01:00,66.7,57.4,30.13,NE,41,8.0,8.0,72,0.00,,,0.00,VWS V14.01,2013-02-03 09:01:00,
2013-02-02 23:06:00,66.7,57.4,30.13,NNE,26,5.0,5.0,72,0.00,,,0.00,VWS V14.01,2013-02-03 09:06:00,
2013-02-02 23:11:00,66.7,57.4,30.13,NE,54,8.0,9.0,72,0.00,,,0.00,VWS V14.01,2013-02-03 09:11:00,
2013-02-02 23:16:00,66.8,57.5,30.12,NNE,19,7.0,10.0,72,0.00,,,0.00,VWS V14.01,2013-02-03 09:16:00,
2013-02-02 23:21:00,66.8,57.5,30.12,North,8,13.0,13.0,72,0.00,,,0.00,VWS V14.01,2013-02-03 09:21:00,
2013-02-02 23:26:00,66.9,57.6,30.12,NE,35,9.0,9.0,72,0.00,,,0.00,VWS V14.01,2013-02-03 09:26:00,
2013-02-02 23:32:00,66.8,57.5,30.12,ENE,59,10.0,10.0,72,0.00,,,0.00,VWS V14.01,2013-02-03 09:32:00,
2013-02-02 23:37:00,66.8,57.5,30.12,NNE,17,7.0,9.0,72,0.00,,,0.00,VWS V14.01,2013-02-03 09:37:00,
2013-02-02 23:42:00,66.8,57.5,30.12,ENE,57,6.0,7.0,72,0.00,,,0.00,VWS V14.01,2013-02-03 09:42:00,
2013-02-02 23:47:00,66.8,57.5,30.11,North,358,8.0,8.0,72,0.00,,,0.00,VWS V14.01,2013-02-03 09:47:00,
2013-02-02 23:52:00,66.6,57.7,30.11,NE,42,9.0,9.0,73,0.00,,,0.00,VWS V14.01,2013-02-03 09:52:00,
2013-02-02 23:57:00,66.7,57.8,30.11,NE,54,6.0,7.0,73,0.00,,,0.00,VWS V14.01,2013-02-03 09:57:00,